sensor_id;sensor_type;location;lat;lon;timestamp;pressure;altitude;pressure_sealevel;temperature;humidity
75013;BME280;63567;49.956;20.130;2023-03-11T00:00:43;94592.75;;;7.73;76.37
75013;BME280;63567;49.956;20.130;2023-03-11T00:03:11;94593.31;;;7.75;76.49
75013;BME280;63567;49.956;20.130;2023-03-11T00:05:40;94596.94;;;7.74;76.62
75013;BME280;63567;49.956;20.130;2023-03-11T00:08:07;94586.03;;;7.65;76.48
75013;BME280;63567;49.956;20.130;2023-03-11T00:10:38;94590.81;;;7.68;76.94
75013;BME280;63567;49.956;20.130;2023-03-11T00:13:05;94591.03;;;7.67;76.46
75013;BME280;63567;49.956;20.130;2023-03-11T00:15:31;94593.19;;;7.70;76.23
75013;BME280;63567;49.956;20.130;2023-03-11T00:17:57;94587.06;;;7.64;76.46
75013;BME280;63567;49.956;20.130;2023-03-11T00:20:23;94585.81;;;7.67;76.70
75013;BME280;63567;49.956;20.130;2023-03-11T00:22:49;94587.28;;;7.63;76.52
75013;BME280;63567;49.956;20.130;2023-03-11T00:25:18;94583.09;;;7.61;76.35
75013;BME280;63567;49.956;20.130;2023-03-11T00:27:44;94577.59;;;7.63;76.19
75013;BME280;63567;49.956;20.130;2023-03-11T00:30:11;94581.81;;;7.64;76.19
75013;BME280;63567;49.956;20.130;2023-03-11T00:32:37;94581.25;;;7.62;76.42
75013;BME280;63567;49.956;20.130;2023-03-11T00:35:03;94580.47;;;7.61;76.03
75013;BME280;63567;49.956;20.130;2023-03-11T00:37:29;94573.63;;;7.60;76.35
75013;BME280;63567;49.956;20.130;2023-03-11T00:39:54;94570.22;;;7.60;76.41
75013;BME280;63567;49.956;20.130;2023-03-11T00:42:19;94571.56;;;7.63;76.28
75013;BME280;63567;49.956;20.130;2023-03-11T00:44:44;94568.72;;;7.64;76.10
75013;BME280;63567;49.956;20.130;2023-03-11T00:47:10;94560.06;;;7.64;76.00
75013;BME280;63567;49.956;20.130;2023-03-11T00:49:36;94564.75;;;7.61;76.09
75013;BME280;63567;49.956;20.130;2023-03-11T00:52:02;94569.66;;;7.58;76.21
75013;BME280;63567;49.956;20.130;2023-03-11T00:54:28;94563.16;;;7.60;76.14
75013;BME280;63567;49.956;20.130;2023-03-11T00:56:53;94550.50;;;7.57;76.29
75013;BME280;63567;49.956;20.130;2023-03-11T00:59:18;94552.78;;;7.54;76.02
75013;BME280;63567;49.956;20.130;2023-03-11T01:01:43;94552.22;;;7.52;76.33
75013;BME280;63567;49.956;20.130;2023-03-11T01:04:09;94548.59;;;7.53;76.05
75013;BME280;63567;49.956;20.130;2023-03-11T01:06:34;94540.16;;;7.51;76.22
75013;BME280;63567;49.956;20.130;2023-03-11T01:08:59;94534.69;;;7.52;75.76
75013;BME280;63567;49.956;20.130;2023-03-11T01:11:24;94535.94;;;7.50;75.65
75013;BME280;63567;49.956;20.130;2023-03-11T01:13:50;94539.13;;;7.52;75.98
75013;BME280;63567;49.956;20.130;2023-03-11T01:16:15;94531.97;;;7.47;75.64
75013;BME280;63567;49.956;20.130;2023-03-11T01:18:40;94536.72;;;7.50;75.33
75013;BME280;63567;49.956;20.130;2023-03-11T01:21:05;94534.44;;;7.54;75.84
75013;BME280;63567;49.956;20.130;2023-03-11T01:23:31;94533.44;;;7.55;75.40
75013;BME280;63567;49.956;20.130;2023-03-11T01:25:56;94524.09;;;7.59;75.15
75013;BME280;63567;49.956;20.130;2023-03-11T01:28:22;94527.25;;;7.61;74.98
75013;BME280;63567;49.956;20.130;2023-03-11T01:30:47;94524.88;;;7.59;75.19
75013;BME280;63567;49.956;20.130;2023-03-11T01:33:15;94523.84;;;7.60;75.26
75013;BME280;63567;49.956;20.130;2023-03-11T01:35:41;94516.25;;;7.59;74.75
75013;BME280;63567;49.956;20.130;2023-03-11T01:38:07;94516.25;;;7.59;74.65
75013;BME280;63567;49.956;20.130;2023-03-11T01:40:34;94522.84;;;7.61;74.51
75013;BME280;63567;49.956;20.130;2023-03-11T01:43:04;94512.34;;;7.61;74.79
75013;BME280;63567;49.956;20.130;2023-03-11T01:45:39;94522.34;;;7.65;74.00
75013;BME280;63567;49.956;20.130;2023-03-11T01:48:07;94519.97;;;7.63;74.29
75013;BME280;63567;49.956;20.130;2023-03-11T01:50:39;94525.44;;;7.61;73.88
75013;BME280;63567;49.956;20.130;2023-03-11T01:53:06;94519.75;;;7.65;73.08
75013;BME280;63567;49.956;20.130;2023-03-11T01:55:33;94524.53;;;7.68;71.99
75013;BME280;63567;49.956;20.130;2023-03-11T01:58:02;94527.69;;;7.70;72.70
75013;BME280;63567;49.956;20.130;2023-03-11T02:00:30;94523.63;;;7.62;73.05
75013;BME280;63567;49.956;20.130;2023-03-11T02:05:28;94526.25;;;7.62;73.38
75013;BME280;63567;49.956;20.130;2023-03-11T02:07:54;94516.91;;;7.54;73.05
75013;BME280;63567;49.956;20.130;2023-03-11T02:10:20;94518.38;;;7.50;72.51
75013;BME280;63567;49.956;20.130;2023-03-11T02:12:47;94521.00;;;7.50;72.40
75013;BME280;63567;49.956;20.130;2023-03-11T02:15:13;94523.19;;;7.53;72.75
75013;BME280;63567;49.956;20.130;2023-03-11T02:17:41;94516.81;;;7.49;72.68
75013;BME280;63567;49.956;20.130;2023-03-11T02:22:56;94515.25;;;7.48;72.21
75013;BME280;63567;49.956;20.130;2023-03-11T02:28:09;94514.66;;;7.46;72.48
75013;BME280;63567;49.956;20.130;2023-03-11T02:30:39;94506.13;;;7.39;72.24
75013;BME280;63567;49.956;20.130;2023-03-11T02:33:05;94515.91;;;7.44;73.01
75013;BME280;63567;49.956;20.130;2023-03-11T02:35:30;94525.03;;;7.41;73.06
75013;BME280;63567;49.956;20.130;2023-03-11T02:37:55;94527.66;;;7.41;72.83
75013;BME280;63567;49.956;20.130;2023-03-11T02:42:54;94534.84;;;7.34;72.88
75013;BME280;63567;49.956;20.130;2023-03-11T02:45:22;94525.50;;;7.26;73.71
75013;BME280;63567;49.956;20.130;2023-03-11T02:47:49;94517.19;;;7.17;72.91
75013;BME280;63567;49.956;20.130;2023-03-11T02:50:16;94526.09;;;7.16;73.31
75013;BME280;63567;49.956;20.130;2023-03-11T02:52:42;94520.97;;;6.98;72.34
75013;BME280;63567;49.956;20.130;2023-03-11T02:55:09;94527.13;;;6.92;71.19
75013;BME280;63567;49.956;20.130;2023-03-11T02:57:36;94526.41;;;6.85;71.74
75013;BME280;63567;49.956;20.130;2023-03-11T03:00:03;94527.56;;;6.77;70.71
75013;BME280;63567;49.956;20.130;2023-03-11T03:02:34;94525.06;;;6.70;70.73
75013;BME280;63567;49.956;20.130;2023-03-11T03:05:00;94530.72;;;6.67;70.33
75013;BME280;63567;49.956;20.130;2023-03-11T03:07:25;94520.16;;;6.62;69.83
75013;BME280;63567;49.956;20.130;2023-03-11T03:09:50;94536.84;;;6.61;69.93
75013;BME280;63567;49.956;20.130;2023-03-11T03:12:16;94524.13;;;6.53;69.87
75013;BME280;63567;49.956;20.130;2023-03-11T03:14:41;94534.03;;;6.51;70.15
75013;BME280;63567;49.956;20.130;2023-03-11T03:17:06;94526.59;;;6.48;69.86
75013;BME280;63567;49.956;20.130;2023-03-11T03:19:31;94546.63;;;6.42;69.19
75013;BME280;63567;49.956;20.130;2023-03-11T03:21:57;94541.03;;;6.38;69.37
75013;BME280;63567;49.956;20.130;2023-03-11T03:24:22;94542.28;;;6.36;69.77
75013;BME280;63567;49.956;20.130;2023-03-11T03:26:47;94548.53;;;6.35;69.05
75013;BME280;63567;49.956;20.130;2023-03-11T03:29:12;94554.63;;;6.29;68.86
75013;BME280;63567;49.956;20.130;2023-03-11T03:31:38;94552.84;;;6.29;68.75
75013;BME280;63567;49.956;20.130;2023-03-11T03:34:03;94556.47;;;6.28;68.58
75013;BME280;63567;49.956;20.130;2023-03-11T03:36:28;94546.56;;;6.19;67.53
75013;BME280;63567;49.956;20.130;2023-03-11T03:38:55;94538.47;;;6.20;68.71
75013;BME280;63567;49.956;20.130;2023-03-11T03:41:20;94542.09;;;6.07;69.03
75013;BME280;63567;49.956;20.130;2023-03-11T03:43:46;94541.84;;;6.09;69.68
75013;BME280;63567;49.956;20.130;2023-03-11T03:46:11;94541.50;;;6.05;70.05
75013;BME280;63567;49.956;20.130;2023-03-11T03:48:36;94534.88;;;6.03;70.24
75013;BME280;63567;49.956;20.130;2023-03-11T03:51:03;94533.53;;;6.00;71.13
75013;BME280;63567;49.956;20.130;2023-03-11T03:53:30;94535.63;;;5.91;71.79
75013;BME280;63567;49.956;20.130;2023-03-11T03:55:55;94535.50;;;5.86;71.59
75013;BME280;63567;49.956;20.130;2023-03-11T03:58:20;94528.53;;;5.80;71.71
75013;BME280;63567;49.956;20.130;2023-03-11T04:00:45;94523.75;;;5.77;71.53
75013;BME280;63567;49.956;20.130;2023-03-11T04:03:11;94517.13;;;5.74;71.99
75013;BME280;63567;49.956;20.130;2023-03-11T04:05:36;94518.84;;;5.69;72.35
75013;BME280;63567;49.956;20.130;2023-03-11T04:08:01;94518.25;;;5.67;72.39
75013;BME280;63567;49.956;20.130;2023-03-11T04:10:27;94518.91;;;5.62;71.96
75013;BME280;63567;49.956;20.130;2023-03-11T04:12:52;94513.13;;;5.60;71.89
75013;BME280;63567;49.956;20.130;2023-03-11T04:15:18;94506.84;;;5.61;72.06
75013;BME280;63567;49.956;20.130;2023-03-11T04:17:43;94511.75;;;5.58;72.41
75013;BME280;63567;49.956;20.130;2023-03-11T04:20:09;94515.34;;;5.56;72.25
75013;BME280;63567;49.956;20.130;2023-03-11T04:22:35;94507.59;;;5.50;72.73
75013;BME280;63567;49.956;20.130;2023-03-11T04:25:00;94507.81;;;5.48;71.89
75013;BME280;63567;49.956;20.130;2023-03-11T04:27:26;94518.25;;;5.48;72.18
75013;BME280;63567;49.956;20.130;2023-03-11T04:29:51;94512.69;;;5.45;72.51
75013;BME280;63567;49.956;20.130;2023-03-11T04:32:16;94520.53;;;5.45;72.60
75013;BME280;63567;49.956;20.130;2023-03-11T04:34:41;94525.38;;;5.41;72.06
75013;BME280;63567;49.956;20.130;2023-03-11T04:37:07;94516.59;;;5.35;72.43
75013;BME280;63567;49.956;20.130;2023-03-11T04:39:32;94517.50;;;5.29;72.37
75013;BME280;63567;49.956;20.130;2023-03-11T04:41:58;94524.09;;;5.32;72.18
75013;BME280;63567;49.956;20.130;2023-03-11T04:44:23;94516.25;;;5.32;72.15
75013;BME280;63567;49.956;20.130;2023-03-11T04:46:49;94511.44;;;5.29;72.24
75013;BME280;63567;49.956;20.130;2023-03-11T04:49:14;94515.28;;;5.26;71.99
75013;BME280;63567;49.956;20.130;2023-03-11T04:51:40;94523.78;;;5.22;71.97
75013;BME280;63567;49.956;20.130;2023-03-11T04:54:05;94526.38;;;5.22;72.14
75013;BME280;63567;49.956;20.130;2023-03-11T04:56:31;94521.81;;;5.17;72.28
75013;BME280;63567;49.956;20.130;2023-03-11T04:58:56;94522.63;;;5.18;71.91
75013;BME280;63567;49.956;20.130;2023-03-11T05:01:21;94519.00;;;5.19;71.82
75013;BME280;63567;49.956;20.130;2023-03-11T05:03:47;94510.00;;;5.14;71.72
75013;BME280;63567;49.956;20.130;2023-03-11T05:06:12;94515.00;;;5.16;71.60
75013;BME280;63567;49.956;20.130;2023-03-11T05:08:37;94511.00;;;5.13;71.96
75013;BME280;63567;49.956;20.130;2023-03-11T05:11:03;94503.41;;;5.12;71.48
75013;BME280;63567;49.956;20.130;2023-03-11T05:13:28;94510.66;;;5.10;71.58
75013;BME280;63567;49.956;20.130;2023-03-11T05:15:54;94508.91;;;5.04;71.20
75013;BME280;63567;49.956;20.130;2023-03-11T05:18:19;94517.16;;;5.01;70.69
75013;BME280;63567;49.956;20.130;2023-03-11T05:20:46;94520.00;;;4.99;71.00
75013;BME280;63567;49.956;20.130;2023-03-11T05:23:11;94519.56;;;5.02;70.92
75013;BME280;63567;49.956;20.130;2023-03-11T05:25:36;94526.59;;;5.02;71.37
75013;BME280;63567;49.956;20.130;2023-03-11T05:28:02;94533.25;;;4.98;71.25
75013;BME280;63567;49.956;20.130;2023-03-11T05:30:28;94534.28;;;4.97;71.20
75013;BME280;63567;49.956;20.130;2023-03-11T05:32:53;94535.00;;;5.04;71.22
75013;BME280;63567;49.956;20.130;2023-03-11T05:35:20;94525.22;;;4.99;71.25
75013;BME280;63567;49.956;20.130;2023-03-11T05:37:45;94534.22;;;5.03;71.28
75013;BME280;63567;49.956;20.130;2023-03-11T05:40:14;94540.81;;;5.06;71.07
75013;BME280;63567;49.956;20.130;2023-03-11T05:42:39;94530.19;;;5.01;71.07
75013;BME280;63567;49.956;20.130;2023-03-11T05:45:06;94533.06;;;4.99;71.67
75013;BME280;63567;49.956;20.130;2023-03-11T05:47:32;94535.22;;;5.02;71.57
75013;BME280;63567;49.956;20.130;2023-03-11T05:49:57;94531.03;;;5.01;71.90
75013;BME280;63567;49.956;20.130;2023-03-11T05:52:22;94531.22;;;5.00;71.99
75013;BME280;63567;49.956;20.130;2023-03-11T05:54:49;94545.91;;;4.94;72.56
75013;BME280;63567;49.956;20.130;2023-03-11T05:57:15;94545.56;;;4.90;73.14
75013;BME280;63567;49.956;20.130;2023-03-11T05:59:40;94555.56;;;4.93;73.14
75013;BME280;63567;49.956;20.130;2023-03-11T06:02:06;94560.78;;;4.93;73.73
75013;BME280;63567;49.956;20.130;2023-03-11T06:04:31;94552.56;;;4.90;74.27
75013;BME280;63567;49.956;20.130;2023-03-11T06:06:56;94559.84;;;4.63;75.05
75013;BME280;63567;49.956;20.130;2023-03-11T06:09:21;94557.44;;;4.61;75.53
75013;BME280;63567;49.956;20.130;2023-03-11T06:11:47;94554.72;;;4.49;76.14
75013;BME280;63567;49.956;20.130;2023-03-11T06:14:13;94576.22;;;4.45;76.76
75013;BME280;63567;49.956;20.130;2023-03-11T06:16:39;94571.34;;;4.23;74.86
75013;BME280;63567;49.956;20.130;2023-03-11T06:19:05;94575.13;;;4.27;74.66
75013;BME280;63567;49.956;20.130;2023-03-11T06:21:30;94573.34;;;4.21;74.57
75013;BME280;63567;49.956;20.130;2023-03-11T06:23:55;94586.81;;;4.11;75.38
75013;BME280;63567;49.956;20.130;2023-03-11T06:26:22;94594.94;;;3.90;75.32
75013;BME280;63567;49.956;20.130;2023-03-11T06:28:48;94607.66;;;3.60;74.71
75013;BME280;63567;49.956;20.130;2023-03-11T06:31:15;94596.91;;;3.49;75.34
75013;BME280;63567;49.956;20.130;2023-03-11T06:33:41;94600.31;;;3.43;73.67
75013;BME280;63567;49.956;20.130;2023-03-11T06:36:07;94608.50;;;3.40;74.97
75013;BME280;63567;49.956;20.130;2023-03-11T06:38:33;94601.34;;;3.22;74.73
75013;BME280;63567;49.956;20.130;2023-03-11T06:41:03;94603.97;;;3.09;73.97
75013;BME280;63567;49.956;20.130;2023-03-11T06:43:29;94621.78;;;3.05;73.97
75013;BME280;63567;49.956;20.130;2023-03-11T06:45:55;94626.97;;;2.92;73.76
75013;BME280;63567;49.956;20.130;2023-03-11T06:48:20;94611.38;;;3.05;73.53
75013;BME280;63567;49.956;20.130;2023-03-11T06:50:56;94620.19;;;3.04;72.86
75013;BME280;63567;49.956;20.130;2023-03-11T06:53:23;94618.81;;;2.88;72.36
75013;BME280;63567;49.956;20.130;2023-03-11T06:56:08;94628.97;;;2.90;72.16
75013;BME280;63567;49.956;20.130;2023-03-11T06:58:35;94637.00;;;2.95;73.25
75013;BME280;63567;49.956;20.130;2023-03-11T07:01:03;94645.19;;;3.05;72.86
75013;BME280;63567;49.956;20.130;2023-03-11T07:03:29;94631.38;;;3.12;72.12
75013;BME280;63567;49.956;20.130;2023-03-11T07:05:55;94637.00;;;3.02;71.17
75013;BME280;63567;49.956;20.130;2023-03-11T07:08:21;94647.41;;;3.08;72.33
75013;BME280;63567;49.956;20.130;2023-03-11T07:10:58;94656.19;;;3.07;71.83
75013;BME280;63567;49.956;20.130;2023-03-11T07:13:23;94665.59;;;3.08;71.04
75013;BME280;63567;49.956;20.130;2023-03-11T07:15:49;94649.41;;;2.93;70.92
75013;BME280;63567;49.956;20.130;2023-03-11T07:18:14;94660.41;;;2.95;71.65
75013;BME280;63567;49.956;20.130;2023-03-11T07:20:39;94658.59;;;2.82;71.37
75013;BME280;63567;49.956;20.130;2023-03-11T07:23:04;94655.41;;;2.80;71.76
75013;BME280;63567;49.956;20.130;2023-03-11T07:25:30;94681.16;;;2.82;72.10
75013;BME280;63567;49.956;20.130;2023-03-11T07:27:55;94663.78;;;2.76;71.32
75013;BME280;63567;49.956;20.130;2023-03-11T07:30:20;94664.78;;;2.75;72.29
75013;BME280;63567;49.956;20.130;2023-03-11T07:32:45;94667.00;;;2.71;71.47
75013;BME280;63567;49.956;20.130;2023-03-11T07:35:11;94682.19;;;2.74;71.65
75013;BME280;63567;49.956;20.130;2023-03-11T07:37:36;94670.75;;;2.68;71.77
75013;BME280;63567;49.956;20.130;2023-03-11T07:40:01;94673.16;;;2.70;71.75
75013;BME280;63567;49.956;20.130;2023-03-11T07:42:26;94684.97;;;2.79;72.14
75013;BME280;63567;49.956;20.130;2023-03-11T07:44:52;94686.38;;;2.75;72.32
75013;BME280;63567;49.956;20.130;2023-03-11T07:47:17;94691.78;;;2.74;72.61
75013;BME280;63567;49.956;20.130;2023-03-11T07:49:42;94690.16;;;2.79;72.58
75013;BME280;63567;49.956;20.130;2023-03-11T07:52:07;94693.59;;;2.80;72.52
75013;BME280;63567;49.956;20.130;2023-03-11T07:54:33;94698.97;;;2.72;73.12
75013;BME280;63567;49.956;20.130;2023-03-11T07:56:58;94707.38;;;2.67;74.60
75013;BME280;63567;49.956;20.130;2023-03-11T07:59:24;94715.72;;;2.56;74.52
75013;BME280;63567;49.956;20.130;2023-03-11T08:01:50;94711.53;;;2.61;75.74
75013;BME280;63567;49.956;20.130;2023-03-11T08:04:15;94727.75;;;2.70;76.33
75013;BME280;63567;49.956;20.130;2023-03-11T08:06:43;94722.91;;;2.54;76.24
75013;BME280;63567;49.956;20.130;2023-03-11T08:09:10;94722.34;;;2.65;77.10
75013;BME280;63567;49.956;20.130;2023-03-11T08:11:36;94723.13;;;2.59;76.98
75013;BME280;63567;49.956;20.130;2023-03-11T08:14:02;94739.94;;;2.70;76.95
75013;BME280;63567;49.956;20.130;2023-03-11T08:16:27;94735.75;;;2.68;76.93
75013;BME280;63567;49.956;20.130;2023-03-11T08:18:53;94736.16;;;2.72;77.29
75013;BME280;63567;49.956;20.130;2023-03-11T08:21:21;94743.78;;;2.74;77.09
75013;BME280;63567;49.956;20.130;2023-03-11T08:23:47;94737.72;;;2.66;76.88
75013;BME280;63567;49.956;20.130;2023-03-11T08:26:15;94741.69;;;2.49;78.33
75013;BME280;63567;49.956;20.130;2023-03-11T08:28:41;94747.47;;;2.44;78.64
75013;BME280;63567;49.956;20.130;2023-03-11T08:31:18;94756.63;;;2.40;79.27
75013;BME280;63567;49.956;20.130;2023-03-11T08:33:46;94779.47;;;2.10;nan
75013;BME280;63567;49.956;20.130;2023-03-11T08:36:14;94763.50;;;2.07;81.38
75013;BME280;63567;49.956;20.130;2023-03-11T08:38:40;94769.50;;;2.14;80.83
75013;BME280;63567;49.956;20.130;2023-03-11T08:41:05;94779.63;;;2.37;79.70
75013;BME280;63567;49.956;20.130;2023-03-11T08:43:30;94773.44;;;2.44;78.30
75013;BME280;63567;49.956;20.130;2023-03-11T08:45:59;94770.59;;;2.33;77.81
75013;BME280;63567;49.956;20.130;2023-03-11T08:48:24;94779.28;;;2.53;78.82
75013;BME280;63567;49.956;20.130;2023-03-11T08:50:50;94773.78;;;2.83;77.08
75013;BME280;63567;49.956;20.130;2023-03-11T08:53:15;94777.44;;;3.02;76.43
75013;BME280;63567;49.956;20.130;2023-03-11T08:55:40;94784.41;;;3.01;75.89
75013;BME280;63567;49.956;20.130;2023-03-11T08:58:05;94775.66;;;3.22;74.50
75013;BME280;63567;49.956;20.130;2023-03-11T09:00:31;94777.88;;;3.52;73.87
75013;BME280;63567;49.956;20.130;2023-03-11T09:02:56;94790.66;;;3.47;72.49
75013;BME280;63567;49.956;20.130;2023-03-11T09:05:22;94796.88;;;3.53;73.61
75013;BME280;63567;49.956;20.130;2023-03-11T09:07:47;94795.69;;;3.35;73.89
75013;BME280;63567;49.956;20.130;2023-03-11T09:10:14;94809.28;;;3.31;74.75
75013;BME280;63567;49.956;20.130;2023-03-11T09:12:40;94817.88;;;3.24;75.47
75013;BME280;63567;49.956;20.130;2023-03-11T09:15:05;94815.25;;;3.18;73.22
75013;BME280;63567;49.956;20.130;2023-03-11T09:17:31;94813.69;;;3.37;74.29
75013;BME280;63567;49.956;20.130;2023-03-11T09:19:56;94795.91;;;3.60;73.06
75013;BME280;63567;49.956;20.130;2023-03-11T09:22:22;94813.28;;;3.46;72.38
75013;BME280;63567;49.956;20.130;2023-03-11T09:24:48;94816.13;;;3.58;72.61
75013;BME280;63567;49.956;20.130;2023-03-11T09:27:13;94814.31;;;3.59;71.25
75013;BME280;63567;49.956;20.130;2023-03-11T09:29:40;94838.09;;;3.36;73.29
75013;BME280;63567;49.956;20.130;2023-03-11T09:32:05;94829.13;;;3.45;73.64
75013;BME280;63567;49.956;20.130;2023-03-11T09:34:30;94841.34;;;3.58;73.28
75013;BME280;63567;49.956;20.130;2023-03-11T09:36:56;94830.09;;;3.37;72.73
75013;BME280;63567;49.956;20.130;2023-03-11T09:39:21;94841.28;;;3.24;73.15
75013;BME280;63567;49.956;20.130;2023-03-11T09:41:54;94841.50;;;3.29;69.97
75013;BME280;63567;49.956;20.130;2023-03-11T09:44:28;94851.25;;;3.14;71.56
75013;BME280;63567;49.956;20.130;2023-03-11T09:50:29;94857.22;;;2.95;73.79
75013;BME280;63567;49.956;20.130;2023-03-11T09:53:15;94864.34;;;2.38;74.85
75013;BME280;63567;49.956;20.130;2023-03-11T09:58:30;94862.56;;;2.45;78.00
75013;BME280;63567;49.956;20.130;2023-03-11T10:00:59;94862.81;;;2.50;77.31
75013;BME280;63567;49.956;20.130;2023-03-11T10:03:32;94865.00;;;2.46;77.22
75013;BME280;63567;49.956;20.130;2023-03-11T10:06:05;94867.56;;;2.40;76.50
75013;BME280;63567;49.956;20.130;2023-03-11T10:17:08;94882.84;;;1.93;80.63
75013;BME280;63567;49.956;20.130;2023-03-11T10:19:59;94891.00;;;1.69;80.63
75013;BME280;63567;49.956;20.130;2023-03-11T10:22:37;94900.16;;;1.64;80.54
75013;BME280;63567;49.956;20.130;2023-03-11T10:25:20;94909.72;;;1.64;82.76
75013;BME280;63567;49.956;20.130;2023-03-11T10:28:12;94898.72;;;1.83;82.71
75013;BME280;63567;49.956;20.130;2023-03-11T10:30:42;94905.25;;;2.01;81.54
75013;BME280;63567;49.956;20.130;2023-03-11T10:33:29;94903.44;;;2.01;79.52
75013;BME280;63567;49.956;20.130;2023-03-11T10:36:00;94900.91;;;2.08;81.59
75013;BME280;63567;49.956;20.130;2023-03-11T10:38:40;94900.84;;;2.01;80.44
75013;BME280;63567;49.956;20.130;2023-03-11T10:41:17;94912.38;;;2.20;80.31
75013;BME280;63567;49.956;20.130;2023-03-11T10:43:53;94906.47;;;2.05;80.46
75013;BME280;63567;49.956;20.130;2023-03-11T10:46:28;94922.06;;;1.83;79.68
75013;BME280;63567;49.956;20.130;2023-03-11T10:48:53;94933.25;;;1.84;82.12
75013;BME280;63567;49.956;20.130;2023-03-11T10:51:25;94942.22;;;1.81;80.75
75013;BME280;63567;49.956;20.130;2023-03-11T10:53:52;94934.81;;;1.57;82.17
75013;BME280;63567;49.956;20.130;2023-03-11T10:56:33;94942.97;;;1.75;82.75
75013;BME280;63567;49.956;20.130;2023-03-11T10:59:00;94940.84;;;1.42;81.40
75013;BME280;63567;49.956;20.130;2023-03-11T11:01:26;94933.06;;;1.42;83.19
75013;BME280;63567;49.956;20.130;2023-03-11T11:03:54;94945.06;;;1.43;82.99
75013;BME280;63567;49.956;20.130;2023-03-11T11:11:39;94952.94;;;1.35;83.53
75013;BME280;63567;49.956;20.130;2023-03-11T11:14:04;94958.16;;;1.20;82.65
75013;BME280;63567;49.956;20.130;2023-03-11T11:16:32;94969.88;;;1.16;84.33
75013;BME280;63567;49.956;20.130;2023-03-11T11:19:08;94974.28;;;1.01;84.67
75013;BME280;63567;49.956;20.130;2023-03-11T11:21:42;94973.13;;;0.74;85.41
75013;BME280;63567;49.956;20.130;2023-03-11T11:24:21;94981.69;;;0.59;86.15
75013;BME280;63567;49.956;20.130;2023-03-11T11:29:35;94984.09;;;0.46;88.03
75013;BME280;63567;49.956;20.130;2023-03-11T11:34:41;94990.09;;;0.24;88.30
75013;BME280;63567;49.956;20.130;2023-03-11T11:37:10;94992.78;;;0.15;88.05
75013;BME280;63567;49.956;20.130;2023-03-11T11:39:46;95001.66;;;0.13;89.16
75013;BME280;63567;49.956;20.130;2023-03-11T11:42:17;95001.22;;;0.09;89.62
75013;BME280;63567;49.956;20.130;2023-03-11T11:44:46;95017.44;;;0.03;89.41
75013;BME280;63567;49.956;20.130;2023-03-11T11:47:16;95025.25;;;-0.05;89.63
75013;BME280;63567;49.956;20.130;2023-03-11T11:49:48;95025.50;;;-0.15;90.81
75013;BME280;63567;49.956;20.130;2023-03-11T11:52:18;95046.22;;;-0.15;91.13
75013;BME280;63567;49.956;20.130;2023-03-11T11:55:24;95044.13;;;-0.19;91.25
75013;BME280;63567;49.956;20.130;2023-03-11T11:57:51;95049.91;;;-0.17;91.17
75013;BME280;63567;49.956;20.130;2023-03-11T12:00:27;95026.75;;;-0.34;91.48
75013;BME280;63567;49.956;20.130;2023-03-11T12:06:25;95071.19;;;-0.30;91.78
75013;BME280;63567;49.956;20.130;2023-03-11T12:09:02;95080.25;;;-0.34;92.55
75013;BME280;63567;49.956;20.130;2023-03-11T12:11:44;95057.16;;;-0.36;92.22
75013;BME280;63567;49.956;20.130;2023-03-11T12:14:20;95073.94;;;-0.32;93.19
75013;BME280;63567;49.956;20.130;2023-03-11T12:16:58;95084.47;;;-0.42;91.97
75013;BME280;63567;49.956;20.130;2023-03-11T12:20:07;95085.94;;;-0.39;93.24
75013;BME280;63567;49.956;20.130;2023-03-11T12:22:27;95093.00;;;-0.33;93.32
75013;BME280;63567;49.956;20.130;2023-03-11T12:25:17;95100.97;;;-0.34;93.52
75013;BME280;63567;49.956;20.130;2023-03-11T12:30:45;95114.41;;;-0.39;92.99
75013;BME280;63567;49.956;20.130;2023-03-11T12:33:17;95132.16;;;-0.36;92.95
75013;BME280;63567;49.956;20.130;2023-03-11T12:35:51;95141.72;;;-0.45;92.82
75013;BME280;63567;49.956;20.130;2023-03-11T12:38:23;95154.16;;;-0.40;93.38
75013;BME280;63567;49.956;20.130;2023-03-11T12:41:44;95153.34;;;-0.40;93.47
75013;BME280;63567;49.956;20.130;2023-03-11T12:46:12;95192.00;;;-0.39;93.64
75013;BME280;63567;49.956;20.130;2023-03-11T12:53:54;95218.66;;;-0.30;92.38
75013;BME280;63567;49.956;20.130;2023-03-11T12:59:01;95224.91;;;-0.25;92.70
75013;BME280;63567;49.956;20.130;2023-03-11T13:01:59;95255.97;;;-0.25;92.30
75013;BME280;63567;49.956;20.130;2023-03-11T13:09:59;95271.47;;;-0.16;92.51
75013;BME280;63567;49.956;20.130;2023-03-11T13:12:39;95276.81;;;-0.18;91.88
75013;BME280;63567;49.956;20.130;2023-03-11T13:18:11;95305.75;;;-0.14;91.26
75013;BME280;63567;49.956;20.130;2023-03-11T13:37:11;95347.66;;;-0.11;91.12
75013;BME280;63567;49.956;20.130;2023-03-11T13:40:10;95356.03;;;-0.09;90.68
75013;BME280;63567;49.956;20.130;2023-03-11T13:42:49;95372.53;;;-0.10;91.00
75013;BME280;63567;49.956;20.130;2023-03-11T13:45:35;95369.16;;;-0.10;90.66
75013;BME280;63567;49.956;20.130;2023-03-11T13:48:15;95390.00;;;-0.12;91.11
75013;BME280;63567;49.956;20.130;2023-03-11T13:50:44;95406.97;;;-0.09;91.84
75013;BME280;63567;49.956;20.130;2023-03-11T13:53:53;95400.84;;;0.00;91.31
75013;BME280;63567;49.956;20.130;2023-03-11T13:56:27;95405.69;;;-0.05;90.94
75013;BME280;63567;49.956;20.130;2023-03-11T13:59:19;95415.53;;;-0.01;91.62
75013;BME280;63567;49.956;20.130;2023-03-11T14:01:55;95416.53;;;-0.02;91.03
75013;BME280;63567;49.956;20.130;2023-03-11T14:04:35;95413.44;;;-0.13;91.65
75013;BME280;63567;49.956;20.130;2023-03-11T14:07:19;95433.19;;;-0.12;90.73
75013;BME280;63567;49.956;20.130;2023-03-11T14:09:47;95431.91;;;-0.08;91.39
75013;BME280;63567;49.956;20.130;2023-03-11T14:12:13;95443.06;;;0.01;91.17
75013;BME280;63567;49.956;20.130;2023-03-11T14:14:59;95444.34;;;-0.04;90.94
75013;BME280;63567;49.956;20.130;2023-03-11T14:17:26;95445.16;;;-0.03;91.16
75013;BME280;63567;49.956;20.130;2023-03-11T14:20:22;95442.41;;;-0.02;91.12
75013;BME280;63567;49.956;20.130;2023-03-11T14:22:51;95451.97;;;-0.10;90.46
75013;BME280;63567;49.956;20.130;2023-03-11T14:25:19;95460.22;;;-0.15;91.45